sensor_id;sensor_type;location;lat;lon;timestamp;pressure;altitude;pressure_sealevel;temperature;humidity
80568;BME280;69922;45.656;25.586;2023-12-04T00:00:13;95719.27;;;-0.79;65.90
80568;BME280;69922;45.656;25.586;2023-12-04T00:01:45;95719.92;;;-0.80;65.95
80568;BME280;69922;45.656;25.586;2023-12-04T00:02:52;95720.05;;;-0.82;65.97
80568;BME280;69922;45.656;25.586;2023-12-04T00:03:58;95725.23;;;-0.83;66.03
80568;BME280;69922;45.656;25.586;2023-12-04T00:05:07;95723.16;;;-0.85;66.22
80568;BME280;69922;45.656;25.586;2023-12-04T00:06:14;95725.93;;;-0.85;66.17
80568;BME280;69922;45.656;25.586;2023-12-04T00:07:20;95726.64;;;-0.85;66.10
80568;BME280;69922;45.656;25.586;2023-12-04T00:08:26;95726.40;;;-0.84;66.15
80568;BME280;69922;45.656;25.586;2023-12-04T00:09:33;95728.17;;;-0.84;66.45
80568;BME280;69922;45.656;25.586;2023-12-04T00:10:39;95728.11;;;-0.84;66.17
80568;BME280;69922;45.656;25.586;2023-12-04T00:11:45;95726.24;;;-0.83;66.52
80568;BME280;69922;45.656;25.586;2023-12-04T00:12:52;95725.73;;;-0.82;66.53
80568;BME280;69922;45.656;25.586;2023-12-04T00:13:58;95730.47;;;-0.81;66.32
80568;BME280;69922;45.656;25.586;2023-12-04T00:15:06;95733.53;;;-0.81;66.57
80568;BME280;69922;45.656;25.586;2023-12-04T00:16:13;95735.04;;;-0.81;66.45
80568;BME280;69922;45.656;25.586;2023-12-04T00:17:20;95735.39;;;-0.82;66.34
80568;BME280;69922;45.656;25.586;2023-12-04T00:18:26;95730.73;;;-0.82;66.56
80568;BME280;69922;45.656;25.586;2023-12-04T00:19:33;95734.64;;;-0.82;66.49
80568;BME280;69922;45.656;25.586;2023-12-04T00:20:39;95733.40;;;-0.82;66.41
80568;BME280;69922;45.656;25.586;2023-12-04T00:21:46;95739.58;;;-0.81;66.31
80568;BME280;69922;45.656;25.586;2023-12-04T00:22:52;95737.98;;;-0.82;66.18
80568;BME280;69922;45.656;25.586;2023-12-04T00:23:59;95738.29;;;-0.82;66.29
80568;BME280;69922;45.656;25.586;2023-12-04T00:25:06;95738.59;;;-0.83;66.44
80568;BME280;69922;45.656;25.586;2023-12-04T00:26:13;95740.51;;;-0.84;66.54
80568;BME280;69922;45.656;25.586;2023-12-04T00:27:20;95743.21;;;-0.85;66.58
80568;BME280;69922;45.656;25.586;2023-12-04T00:28:35;95744.96;;;-0.86;66.45
80568;BME280;69922;45.656;25.586;2023-12-04T00:29:42;95745.92;;;-0.87;66.38
80568;BME280;69922;45.656;25.586;2023-12-04T00:30:48;95745.22;;;-0.87;66.69
80568;BME280;69922;45.656;25.586;2023-12-04T00:31:55;95743.59;;;-0.85;66.46
80568;BME280;69922;45.656;25.586;2023-12-04T00:33:03;95748.17;;;-0.84;66.59
80568;BME280;69922;45.656;25.586;2023-12-04T00:34:09;95744.86;;;-0.83;66.32
80568;BME280;69922;45.656;25.586;2023-12-04T00:35:16;95751.69;;;-0.82;66.49
80568;BME280;69922;45.656;25.586;2023-12-04T00:36:22;95753.52;;;-0.83;66.43
80568;BME280;69922;45.656;25.586;2023-12-04T00:37:29;95753.41;;;-0.82;66.40
80568;BME280;69922;45.656;25.586;2023-12-04T00:38:36;95752.11;;;-0.83;66.02
80568;BME280;69922;45.656;25.586;2023-12-04T00:39:42;95751.25;;;-0.83;66.38
80568;BME280;69922;45.656;25.586;2023-12-04T00:40:49;95754.77;;;-0.84;66.39
80568;BME280;69922;45.656;25.586;2023-12-04T00:41:55;95753.37;;;-0.84;66.50
80568;BME280;69922;45.656;25.586;2023-12-04T00:43:02;95756.76;;;-0.84;66.37
80568;BME280;69922;45.656;25.586;2023-12-04T00:44:08;95759.95;;;-0.84;66.45
80568;BME280;69922;45.656;25.586;2023-12-04T00:45:15;95758.88;;;-0.85;66.40
80568;BME280;69922;45.656;25.586;2023-12-04T00:46:21;95759.58;;;-0.85;66.49
80568;BME280;69922;45.656;25.586;2023-12-04T00:47:27;95765.45;;;-0.86;66.63
80568;BME280;69922;45.656;25.586;2023-12-04T00:48:34;95765.19;;;-0.86;66.43
80568;BME280;69922;45.656;25.586;2023-12-04T00:49:41;95765.39;;;-0.86;66.60
80568;BME280;69922;45.656;25.586;2023-12-04T00:50:48;95764.36;;;-0.87;66.54
80568;BME280;69922;45.656;25.586;2023-12-04T00:51:54;95763.06;;;-0.87;66.57
80568;BME280;69922;45.656;25.586;2023-12-04T00:53:01;95762.48;;;-0.87;66.65
80568;BME280;69922;45.656;25.586;2023-12-04T00:54:07;95763.98;;;-0.87;66.58
80568;BME280;69922;45.656;25.586;2023-12-04T00:55:14;95764.48;;;-0.86;66.73
80568;BME280;69922;45.656;25.586;2023-12-04T00:56:21;95765.20;;;-0.85;66.72
80568;BME280;69922;45.656;25.586;2023-12-04T00:57:27;95765.97;;;-0.84;66.82
80568;BME280;69922;45.656;25.586;2023-12-04T00:58:34;95768.05;;;-0.84;66.95
80568;BME280;69922;45.656;25.586;2023-12-04T00:59:40;95766.35;;;-0.84;66.83
80568;BME280;69922;45.656;25.586;2023-12-04T01:00:46;95767.92;;;-0.83;66.76
80568;BME280;69922;45.656;25.586;2023-12-04T01:01:55;95765.12;;;-0.83;66.65
80568;BME280;69922;45.656;25.586;2023-12-04T01:03:01;95771.88;;;-0.81;66.84
80568;BME280;69922;45.656;25.586;2023-12-04T01:04:08;95772.61;;;-0.81;66.51
80568;BME280;69922;45.656;25.586;2023-12-04T01:05:15;95773.59;;;-0.83;66.40
80568;BME280;69922;45.656;25.586;2023-12-04T01:06:24;95773.27;;;-0.87;66.28
80568;BME280;69922;45.656;25.586;2023-12-04T01:07:31;95771.52;;;-0.88;66.38
80568;BME280;69922;45.656;25.586;2023-12-04T01:08:37;95771.39;;;-0.89;66.32
80568;BME280;69922;45.656;25.586;2023-12-04T01:09:43;95774.09;;;-0.91;66.33
80568;BME280;69922;45.656;25.586;2023-12-04T01:10:50;95777.55;;;-0.92;66.63
80568;BME280;69922;45.656;25.586;2023-12-04T01:11:56;95770.63;;;-0.95;66.37
80568;BME280;69922;45.656;25.586;2023-12-04T01:13:02;95775.42;;;-0.97;66.66
80568;BME280;69922;45.656;25.586;2023-12-04T01:14:09;95775.82;;;-0.98;66.42
80568;BME280;69922;45.656;25.586;2023-12-04T01:15:15;95778.10;;;-0.99;66.49
80568;BME280;69922;45.656;25.586;2023-12-04T01:16:22;95778.31;;;-0.99;66.61
80568;BME280;69922;45.656;25.586;2023-12-04T01:17:28;95777.38;;;-1.00;66.56
80568;BME280;69922;45.656;25.586;2023-12-04T01:18:35;95775.77;;;-1.00;66.52
80568;BME280;69922;45.656;25.586;2023-12-04T01:19:41;95775.51;;;-1.00;66.55
80568;BME280;69922;45.656;25.586;2023-12-04T01:20:48;95772.65;;;-0.99;66.71
80568;BME280;69922;45.656;25.586;2023-12-04T01:21:54;95774.86;;;-0.98;66.93
80568;BME280;69922;45.656;25.586;2023-12-04T01:23:00;95776.26;;;-0.98;66.97
80568;BME280;69922;45.656;25.586;2023-12-04T01:24:06;95774.77;;;-0.97;66.72
80568;BME280;69922;45.656;25.586;2023-12-04T01:25:13;95772.59;;;-0.96;66.80
80568;BME280;69922;45.656;25.586;2023-12-04T01:26:19;95772.20;;;-0.94;67.09
80568;BME280;69922;45.656;25.586;2023-12-04T01:27:26;95769.84;;;-0.94;66.79
80568;BME280;69922;45.656;25.586;2023-12-04T01:28:32;95769.03;;;-0.94;66.79
80568;BME280;69922;45.656;25.586;2023-12-04T01:29:38;95775.02;;;-0.95;66.68
80568;BME280;69922;45.656;25.586;2023-12-04T01:30:45;95773.92;;;-0.96;66.83
80568;BME280;69922;45.656;25.586;2023-12-04T01:31:51;95776.42;;;-0.97;66.51
80568;BME280;69922;45.656;25.586;2023-12-04T01:32:58;95768.09;;;-0.99;66.53
80568;BME280;69922;45.656;25.586;2023-12-04T01:34:04;95769.17;;;-1.00;66.51
80568;BME280;69922;45.656;25.586;2023-12-04T01:35:11;95767.48;;;-1.02;66.72
80568;BME280;69922;45.656;25.586;2023-12-04T01:36:17;95766.92;;;-1.03;66.91
80568;BME280;69922;45.656;25.586;2023-12-04T01:37:24;95769.52;;;-1.05;66.46
80568;BME280;69922;45.656;25.586;2023-12-04T01:38:30;95764.66;;;-1.07;66.43
80568;BME280;69922;45.656;25.586;2023-12-04T01:39:37;95764.41;;;-1.07;66.57
80568;BME280;69922;45.656;25.586;2023-12-04T01:40:43;95764.67;;;-1.08;66.55
80568;BME280;69922;45.656;25.586;2023-12-04T01:41:50;95768.50;;;-1.07;66.46
80568;BME280;69922;45.656;25.586;2023-12-04T01:42:56;95769.54;;;-1.06;66.27
80568;BME280;69922;45.656;25.586;2023-12-04T01:44:02;95772.73;;;-1.05;66.82
80568;BME280;69922;45.656;25.586;2023-12-04T01:45:10;95769.59;;;-1.04;66.73
80568;BME280;69922;45.656;25.586;2023-12-04T01:46:17;95772.88;;;-1.03;66.54
80568;BME280;69922;45.656;25.586;2023-12-04T01:47:24;95773.66;;;-1.04;66.61
80568;BME280;69922;45.656;25.586;2023-12-04T01:48:30;95773.65;;;-1.05;66.64
80568;BME280;69922;45.656;25.586;2023-12-04T01:49:37;95774.21;;;-1.06;66.69
80568;BME280;69922;45.656;25.586;2023-12-04T01:50:43;95774.34;;;-1.07;66.59
80568;BME280;69922;45.656;25.586;2023-12-04T01:51:50;95773.05;;;-1.08;67.00
80568;BME280;69922;45.656;25.586;2023-12-04T01:52:57;95776.11;;;-1.08;66.99
80568;BME280;69922;45.656;25.586;2023-12-04T01:54:05;95777.30;;;-1.09;67.03
80568;BME280;69922;45.656;25.586;2023-12-04T01:55:12;95778.43;;;-1.09;67.30
80568;BME280;69922;45.656;25.586;2023-12-04T01:56:21;95778.52;;;-1.09;67.12
80568;BME280;69922;45.656;25.586;2023-12-04T01:57:27;95774.58;;;-1.11;67.29
80568;BME280;69922;45.656;25.586;2023-12-04T01:58:35;95778.96;;;-1.11;67.19
80568;BME280;69922;45.656;25.586;2023-12-04T01:59:41;95774.83;;;-1.12;67.21
80568;BME280;69922;45.656;25.586;2023-12-04T02:00:49;95774.48;;;-1.13;67.50
80568;BME280;69922;45.656;25.586;2023-12-04T02:01:55;95781.01;;;-1.14;67.63
80568;BME280;69922;45.656;25.586;2023-12-04T02:03:03;95783.63;;;-1.15;67.67
80568;BME280;69922;45.656;25.586;2023-12-04T02:04:11;95785.78;;;-1.14;67.95
80568;BME280;69922;45.656;25.586;2023-12-04T02:05:18;95779.95;;;-1.13;67.75
80568;BME280;69922;45.656;25.586;2023-12-04T02:06:25;95778.90;;;-1.12;67.78
80568;BME280;69922;45.656;25.586;2023-12-04T02:07:32;95782.58;;;-1.10;67.76
80568;BME280;69922;45.656;25.586;2023-12-04T02:08:39;95780.63;;;-1.09;67.95
80568;BME280;69922;45.656;25.586;2023-12-04T02:09:47;95782.30;;;-1.08;68.23
80568;BME280;69922;45.656;25.586;2023-12-04T02:10:53;95782.73;;;-1.08;68.46
80568;BME280;69922;45.656;25.586;2023-12-04T02:12:00;95778.87;;;-1.06;68.37
80568;BME280;69922;45.656;25.586;2023-12-04T02:13:07;95781.02;;;-1.06;68.33
80568;BME280;69922;45.656;25.586;2023-12-04T02:14:13;95778.80;;;-1.04;68.12
80568;BME280;69922;45.656;25.586;2023-12-04T02:15:20;95779.91;;;-1.05;67.75
80568;BME280;69922;45.656;25.586;2023-12-04T02:16:28;95786.30;;;-1.05;67.60
80568;BME280;69922;45.656;25.586;2023-12-04T02:17:33;95784.48;;;-1.04;67.61
80568;BME280;69922;45.656;25.586;2023-12-04T02:18:41;95784.52;;;-1.05;67.62
80568;BME280;69922;45.656;25.586;2023-12-04T02:19:47;95783.11;;;-1.03;67.24
80568;BME280;69922;45.656;25.586;2023-12-04T02:20:54;95782.52;;;-1.03;67.28
80568;BME280;69922;45.656;25.586;2023-12-04T02:22:01;95778.48;;;-1.04;67.12
80568;BME280;69922;45.656;25.586;2023-12-04T02:23:07;95777.92;;;-1.05;67.28
80568;BME280;69922;45.656;25.586;2023-12-04T02:24:14;95782.80;;;-1.03;67.26
80568;BME280;69922;45.656;25.586;2023-12-04T02:25:20;95781.85;;;-1.01;67.60
80568;BME280;69922;45.656;25.586;2023-12-04T02:26:44;95786.01;;;-1.00;67.44
80568;BME280;69922;45.656;25.586;2023-12-04T02:27:54;95783.42;;;-0.99;67.37
80568;BME280;69922;45.656;25.586;2023-12-04T02:29:05;95781.33;;;-0.99;67.06
80568;BME280;69922;45.656;25.586;2023-12-04T02:30:14;95782.38;;;-0.97;66.97
80568;BME280;69922;45.656;25.586;2023-12-04T02:31:24;95785.30;;;-0.96;66.70
80568;BME280;69922;45.656;25.586;2023-12-04T02:32:34;95782.41;;;-0.94;66.78
80568;BME280;69922;45.656;25.586;2023-12-04T02:33:43;95782.70;;;-0.92;66.70
80568;BME280;69922;45.656;25.586;2023-12-04T02:34:52;95782.79;;;-0.90;66.65
80568;BME280;69922;45.656;25.586;2023-12-04T02:36:00;95777.12;;;-0.89;66.59
80568;BME280;69922;45.656;25.586;2023-12-04T02:37:09;95781.42;;;-0.88;66.50
80568;BME280;69922;45.656;25.586;2023-12-04T02:38:16;95780.83;;;-0.87;66.92
80568;BME280;69922;45.656;25.586;2023-12-04T02:39:24;95780.88;;;-0.87;66.94
80568;BME280;69922;45.656;25.586;2023-12-04T02:40:31;95787.13;;;-0.88;67.02
80568;BME280;69922;45.656;25.586;2023-12-04T02:41:37;95784.82;;;-0.88;67.20
80568;BME280;69922;45.656;25.586;2023-12-04T02:42:44;95788.43;;;-0.90;67.14
80568;BME280;69922;45.656;25.586;2023-12-04T02:43:50;95783.83;;;-0.91;67.22
80568;BME280;69922;45.656;25.586;2023-12-04T02:44:57;95787.60;;;-0.94;67.26
80568;BME280;69922;45.656;25.586;2023-12-04T02:46:04;95788.48;;;-0.94;67.28
80568;BME280;69922;45.656;25.586;2023-12-04T02:47:11;95792.91;;;-0.96;67.56
80568;BME280;69922;45.656;25.586;2023-12-04T02:48:17;95794.23;;;-0.95;67.53
80568;BME280;69922;45.656;25.586;2023-12-04T02:49:24;95797.81;;;-0.95;67.56
80568;BME280;69922;45.656;25.586;2023-12-04T02:50:30;95792.03;;;-0.94;67.80
80568;BME280;69922;45.656;25.586;2023-12-04T02:51:37;95794.52;;;-0.94;67.45
80568;BME280;69922;45.656;25.586;2023-12-04T02:52:46;95792.80;;;-0.94;67.57
80568;BME280;69922;45.656;25.586;2023-12-04T02:53:52;95792.83;;;-0.95;67.13
80568;BME280;69922;45.656;25.586;2023-12-04T02:54:59;95797.65;;;-0.95;67.23
80568;BME280;69922;45.656;25.586;2023-12-04T02:56:07;95792.78;;;-0.97;66.92
80568;BME280;69922;45.656;25.586;2023-12-04T02:57:13;95792.16;;;-0.99;67.05
80568;BME280;69922;45.656;25.586;2023-12-04T02:58:20;95794.42;;;-1.00;66.91
80568;BME280;69922;45.656;25.586;2023-12-04T02:59:26;95793.63;;;-1.02;67.23
80568;BME280;69922;45.656;25.586;2023-12-04T03:00:32;95795.31;;;-1.04;67.21
80568;BME280;69922;45.656;25.586;2023-12-04T03:01:39;95797.96;;;-1.06;67.38
80568;BME280;69922;45.656;25.586;2023-12-04T03:02:46;95798.35;;;-1.07;67.12
80568;BME280;69922;45.656;25.586;2023-12-04T03:03:52;95801.15;;;-1.09;67.38
80568;BME280;69922;45.656;25.586;2023-12-04T03:04:59;95804.14;;;-1.12;67.39
80568;BME280;69922;45.656;25.586;2023-12-04T03:06:06;95801.50;;;-1.16;67.33
80568;BME280;69922;45.656;25.586;2023-12-04T03:07:13;95807.02;;;-1.18;67.49
80568;BME280;69922;45.656;25.586;2023-12-04T03:08:19;95806.11;;;-1.20;67.30
80568;BME280;69922;45.656;25.586;2023-12-04T03:09:26;95811.56;;;-1.23;67.57
80568;BME280;69922;45.656;25.586;2023-12-04T03:10:52;95806.58;;;-1.27;67.86
80568;BME280;69922;45.656;25.586;2023-12-04T03:11:59;95810.34;;;-1.28;67.90
80568;BME280;69922;45.656;25.586;2023-12-04T03:13:05;95812.60;;;-1.30;68.24
80568;BME280;69922;45.656;25.586;2023-12-04T03:14:12;95809.56;;;-1.31;68.12
80568;BME280;69922;45.656;25.586;2023-12-04T03:15:18;95810.71;;;-1.33;68.06
80568;BME280;69922;45.656;25.586;2023-12-04T03:16:25;95811.86;;;-1.34;67.98
80568;BME280;69922;45.656;25.586;2023-12-04T03:17:32;95807.10;;;-1.36;67.91
80568;BME280;69922;45.656;25.586;2023-12-04T03:18:39;95814.64;;;-1.37;68.10
80568;BME280;69922;45.656;25.586;2023-12-04T03:19:45;95813.95;;;-1.39;67.89
80568;BME280;69922;45.656;25.586;2023-12-04T03:20:52;95814.87;;;-1.41;67.76
80568;BME280;69922;45.656;25.586;2023-12-04T03:21:59;95813.73;;;-1.44;68.12
80568;BME280;69922;45.656;25.586;2023-12-04T03:23:06;95813.36;;;-1.46;68.24
80568;BME280;69922;45.656;25.586;2023-12-04T03:24:12;95817.10;;;-1.48;68.59
80568;BME280;69922;45.656;25.586;2023-12-04T03:25:18;95810.80;;;-1.49;68.33
80568;BME280;69922;45.656;25.586;2023-12-04T03:26:24;95813.77;;;-1.51;68.44
80568;BME280;69922;45.656;25.586;2023-12-04T03:27:30;95812.50;;;-1.53;68.73
80568;BME280;69922;45.656;25.586;2023-12-04T03:28:37;95810.96;;;-1.55;68.97
80568;BME280;69922;45.656;25.586;2023-12-04T03:29:44;95814.15;;;-1.56;69.15
80568;BME280;69922;45.656;25.586;2023-12-04T03:30:50;95816.94;;;-1.58;68.69
80568;BME280;69922;45.656;25.586;2023-12-04T03:31:57;95818.12;;;-1.60;69.17
80568;BME280;69922;45.656;25.586;2023-12-04T03:33:04;95819.96;;;-1.61;69.20
80568;BME280;69922;45.656;25.586;2023-12-04T03:34:10;95816.39;;;-1.63;69.23
80568;BME280;69922;45.656;25.586;2023-12-04T03:35:17;95816.60;;;-1.63;69.18
80568;BME280;69922;45.656;25.586;2023-12-04T03:36:23;95818.86;;;-1.62;69.25
80568;BME280;69922;45.656;25.586;2023-12-04T03:37:30;95819.59;;;-1.61;69.80
80568;BME280;69922;45.656;25.586;2023-12-04T03:38:37;95818.89;;;-1.62;69.44
80568;BME280;69922;45.656;25.586;2023-12-04T03:39:43;95821.08;;;-1.62;69.77
80568;BME280;69922;45.656;25.586;2023-12-04T03:40:49;95826.11;;;-1.62;69.97
80568;BME280;69922;45.656;25.586;2023-12-04T03:41:55;95825.83;;;-1.62;69.79
80568;BME280;69922;45.656;25.586;2023-12-04T03:43:02;95824.55;;;-1.62;69.89
80568;BME280;69922;45.656;25.586;2023-12-04T03:44:08;95826.65;;;-1.64;69.83
80568;BME280;69922;45.656;25.586;2023-12-04T03:45:15;95823.20;;;-1.65;69.69
80568;BME280;69922;45.656;25.586;2023-12-04T03:46:22;95823.41;;;-1.65;70.16
80568;BME280;69922;45.656;25.586;2023-12-04T03:47:28;95824.55;;;-1.65;70.24
80568;BME280;69922;45.656;25.586;2023-12-04T03:48:35;95824.27;;;-1.65;70.38
80568;BME280;69922;45.656;25.586;2023-12-04T03:49:41;95830.80;;;-1.66;70.05
80568;BME280;69922;45.656;25.586;2023-12-04T03:50:47;95830.60;;;-1.67;69.92
80568;BME280;69922;45.656;25.586;2023-12-04T03:51:54;95830.92;;;-1.69;70.20
80568;BME280;69922;45.656;25.586;2023-12-04T03:53:00;95832.20;;;-1.71;70.24
80568;BME280;69922;45.656;25.586;2023-12-04T03:54:07;95829.52;;;-1.74;70.26
80568;BME280;69922;45.656;25.586;2023-12-04T03:55:13;95828.98;;;-1.76;70.41
80568;BME280;69922;45.656;25.586;2023-12-04T03:56:20;95827.13;;;-1.78;70.45
80568;BME280;69922;45.656;25.586;2023-12-04T03:57:26;95825.35;;;-1.80;70.47
80568;BME280;69922;45.656;25.586;2023-12-04T03:58:33;95828.28;;;-1.81;70.61
80568;BME280;69922;45.656;25.586;2023-12-04T03:59:39;95829.17;;;-1.82;70.88
80568;BME280;69922;45.656;25.586;2023-12-04T04:00:46;95828.26;;;-1.82;71.06
80568;BME280;69922;45.656;25.586;2023-12-04T04:01:52;95831.14;;;-1.82;70.82
80568;BME280;69922;45.656;25.586;2023-12-04T04:02:58;95830.11;;;-1.82;71.24
80568;BME280;69922;45.656;25.586;2023-12-04T04:04:05;95826.75;;;-1.82;71.63
80568;BME280;69922;45.656;25.586;2023-12-04T04:05:12;95831.14;;;-1.82;71.94
80568;BME280;69922;45.656;25.586;2023-12-04T04:06:18;95827.44;;;-1.82;72.01
80568;BME280;69922;45.656;25.586;2023-12-04T04:07:25;95828.27;;;-1.83;72.22
80568;BME280;69922;45.656;25.586;2023-12-04T04:08:33;95832.63;;;-1.82;72.15
80568;BME280;69922;45.656;25.586;2023-12-04T04:09:40;95836.02;;;-1.82;72.35
80568;BME280;69922;45.656;25.586;2023-12-04T04:10:46;95835.50;;;-1.81;72.12
80568;BME280;69922;45.656;25.586;2023-12-04T04:11:53;95834.36;;;-1.80;72.42
80568;BME280;69922;45.656;25.586;2023-12-04T04:12:59;95831.13;;;-1.78;72.41
80568;BME280;69922;45.656;25.586;2023-12-04T04:14:06;95830.78;;;-1.77;72.29
80568;BME280;69922;45.656;25.586;2023-12-04T04:15:13;95831.04;;;-1.76;72.26
80568;BME280;69922;45.656;25.586;2023-12-04T04:16:19;95830.16;;;-1.74;72.44
80568;BME280;69922;45.656;25.586;2023-12-04T04:17:25;95829.86;;;-1.73;72.57
80568;BME280;69922;45.656;25.586;2023-12-04T04:18:33;95834.65;;;-1.72;72.53
80568;BME280;69922;45.656;25.586;2023-12-04T04:19:40;95829.47;;;-1.71;72.23
80568;BME280;69922;45.656;25.586;2023-12-04T04:20:47;95830.64;;;-1.69;72.34
80568;BME280;69922;45.656;25.586;2023-12-04T04:21:53;95831.23;;;-1.70;72.29
80568;BME280;69922;45.656;25.586;2023-12-04T04:22:59;95832.06;;;-1.71;72.42
80568;BME280;69922;45.656;25.586;2023-12-04T04:24:06;95834.19;;;-1.71;72.39
80568;BME280;69922;45.656;25.586;2023-12-04T04:25:13;95836.46;;;-1.72;72.18
80568;BME280;69922;45.656;25.586;2023-12-04T04:26:19;95837.15;;;-1.73;72.35
80568;BME280;69922;45.656;25.586;2023-12-04T04:27:26;95842.27;;;-1.74;71.86
80568;BME280;69922;45.656;25.586;2023-12-04T04:28:32;95841.40;;;-1.77;71.75
80568;BME280;69922;45.656;25.586;2023-12-04T04:29:39;95840.67;;;-1.78;71.80
80568;BME280;69922;45.656;25.586;2023-12-04T04:30:45;95844.31;;;-1.78;71.91
80568;BME280;69922;45.656;25.586;2023-12-04T04:31:51;95843.49;;;-1.79;71.92
80568;BME280;69922;45.656;25.586;2023-12-04T04:32:58;95846.35;;;-1.80;72.01
80568;BME280;69922;45.656;25.586;2023-12-04T04:34:04;95846.24;;;-1.79;71.94
80568;BME280;69922;45.656;25.586;2023-12-04T04:35:11;95845.58;;;-1.78;71.98
80568;BME280;69922;45.656;25.586;2023-12-04T04:36:17;95845.92;;;-1.78;71.82
80568;BME280;69922;45.656;25.586;2023-12-04T04:37:24;95845.55;;;-1.79;71.85
80568;BME280;69922;45.656;25.586;2023-12-04T04:38:30;95838.73;;;-1.80;71.91
80568;BME280;69922;45.656;25.586;2023-12-04T04:39:36;95840.05;;;-1.81;72.09
80568;BME280;69922;45.656;25.586;2023-12-04T04:40:43;95841.36;;;-1.82;72.29
80568;BME280;69922;45.656;25.586;2023-12-04T04:41:50;95842.15;;;-1.83;72.45
80568;BME280;69922;45.656;25.586;2023-12-04T04:42:56;95846.94;;;-1.84;72.33
80568;BME280;69922;45.656;25.586;2023-12-04T04:44:03;95845.98;;;-1.83;72.11
80568;BME280;69922;45.656;25.586;2023-12-04T04:45:10;95845.55;;;-1.84;72.13
80568;BME280;69922;45.656;25.586;2023-12-04T04:46:17;95848.27;;;-1.84;71.73
80568;BME280;69922;45.656;25.586;2023-12-04T04:47:23;95848.44;;;-1.84;71.57
80568;BME280;69922;45.656;25.586;2023-12-04T04:48:30;95850.45;;;-1.85;71.71
80568;BME280;69922;45.656;25.586;2023-12-04T04:49:37;95851.95;;;-1.85;72.06
80568;BME280;69922;45.656;25.586;2023-12-04T04:50:43;95853.39;;;-1.85;71.98
80568;BME280;69922;45.656;25.586;2023-12-04T04:51:49;95852.02;;;-1.87;72.41
80568;BME280;69922;45.656;25.586;2023-12-04T04:52:56;95853.77;;;-1.87;72.31
80568;BME280;69922;45.656;25.586;2023-12-04T04:54:02;95851.64;;;-1.89;72.88
80568;BME280;69922;45.656;25.586;2023-12-04T04:55:09;95853.56;;;-1.89;72.73
80568;BME280;69922;45.656;25.586;2023-12-04T04:56:16;95853.64;;;-1.88;73.01
80568;BME280;69922;45.656;25.586;2023-12-04T04:57:23;95856.25;;;-1.89;73.53
80568;BME280;69922;45.656;25.586;2023-12-04T04:58:29;95858.52;;;-1.89;73.12
80568;BME280;69922;45.656;25.586;2023-12-04T04:59:36;95857.50;;;-1.90;73.22
80568;BME280;69922;45.656;25.586;2023-12-04T05:00:42;95859.75;;;-1.89;72.96
80568;BME280;69922;45.656;25.586;2023-12-04T05:01:49;95863.72;;;-1.89;73.50
80568;BME280;69922;45.656;25.586;2023-12-04T05:02:55;95865.52;;;-1.90;73.58
80568;BME280;69922;45.656;25.586;2023-12-04T05:04:02;95867.09;;;-1.89;73.42
80568;BME280;69922;45.656;25.586;2023-12-04T05:05:11;95862.39;;;-1.89;72.99
80568;BME280;69922;45.656;25.586;2023-12-04T05:06:17;95863.67;;;-1.89;73.10
80568;BME280;69922;45.656;25.586;2023-12-04T05:07:24;95862.84;;;-1.90;72.61
80568;BME280;69922;45.656;25.586;2023-12-04T05:08:30;95863.17;;;-1.92;72.50
80568;BME280;69922;45.656;25.586;2023-12-04T05:09:37;95862.44;;;-1.94;72.50
80568;BME280;69922;45.656;25.586;2023-12-04T05:10:43;95859.66;;;-1.96;72.24
80568;BME280;69922;45.656;25.586;2023-12-04T05:11:50;95864.48;;;-1.96;71.93
80568;BME280;69922;45.656;25.586;2023-12-04T05:12:57;95865.63;;;-1.96;71.78
80568;BME280;69922;45.656;25.586;2023-12-04T05:14:03;95868.01;;;-1.98;72.01
80568;BME280;69922;45.656;25.586;2023-12-04T05:15:11;95865.81;;;-2.00;71.97
80568;BME280;69922;45.656;25.586;2023-12-04T05:16:17;95864.77;;;-2.02;71.72
80568;BME280;69922;45.656;25.586;2023-12-04T05:17:23;95861.73;;;-2.02;72.02
80568;BME280;69922;45.656;25.586;2023-12-04T05:18:30;95862.27;;;-2.02;71.95
80568;BME280;69922;45.656;25.586;2023-12-04T05:19:36;95860.42;;;-2.03;71.56
80568;BME280;69922;45.656;25.586;2023-12-04T05:20:43;95863.79;;;-2.04;71.82
80568;BME280;69922;45.656;25.586;2023-12-04T05:21:49;95866.41;;;-2.04;71.69
80568;BME280;69922;45.656;25.586;2023-12-04T05:22:56;95866.55;;;-2.05;71.57
80568;BME280;69922;45.656;25.586;2023-12-04T05:24:02;95867.70;;;-2.05;71.48
80568;BME280;69922;45.656;25.586;2023-12-04T05:25:10;95866.21;;;-2.05;71.40
80568;BME280;69922;45.656;25.586;2023-12-04T05:26:16;95864.52;;;-2.04;72.00
80568;BME280;69922;45.656;25.586;2023-12-04T05:27:22;95871.42;;;-2.04;71.45
80568;BME280;69922;45.656;25.586;2023-12-04T05:28:28;95872.39;;;-2.04;70.99
80568;BME280;69922;45.656;25.586;2023-12-04T05:29:35;95873.17;;;-2.05;70.93
80568;BME280;69922;45.656;25.586;2023-12-04T05:30:41;95878.17;;;-2.06;70.26
80568;BME280;69922;45.656;25.586;2023-12-04T05:31:48;95872.02;;;-2.08;70.71
80568;BME280;69922;45.656;25.586;2023-12-04T05:32:54;95874.27;;;-2.07;70.96
80568;BME280;69922;45.656;25.586;2023-12-04T05:34:01;95876.79;;;-2.07;70.70
80568;BME280;69922;45.656;25.586;2023-12-04T05:35:08;95878.56;;;-2.07;70.90
80568;BME280;69922;45.656;25.586;2023-12-04T05:36:15;95883.52;;;-2.08;70.62
80568;BME280;69922;45.656;25.586;2023-12-04T05:37:21;95883.72;;;-2.08;70.41
80568;BME280;69922;45.656;25.586;2023-12-04T05:38:27;95886.48;;;-2.09;70.62
80568;BME280;69922;45.656;25.586;2023-12-04T05:39:34;95889.80;;;-2.10;70.23
80568;BME280;69922;45.656;25.586;2023-12-04T05:40:41;95895.33;;;-2.09;70.38
80568;BME280;69922;45.656;25.586;2023-12-04T05:41:47;95891.10;;;-2.09;70.10
80568;BME280;69922;45.656;25.586;2023-12-04T05:42:54;95891.26;;;-2.09;70.15
80568;BME280;69922;45.656;25.586;2023-12-04T05:44:00;95892.65;;;-2.09;70.04
80568;BME280;69922;45.656;25.586;2023-12-04T05:45:08;95891.33;;;-2.08;70.36
80568;BME280;69922;45.656;25.586;2023-12-04T05:46:15;95886.70;;;-2.09;70.32
80568;BME280;69922;45.656;25.586;2023-12-04T05:47:21;95884.64;;;-2.11;70.49
80568;BME280;69922;45.656;25.586;2023-12-04T05:48:27;95881.00;;;-2.14;70.19
80568;BME280;69922;45.656;25.586;2023-12-04T05:49:33;95882.84;;;-2.15;70.30